createdAt,value
2019-04-14T00:01:59.292Z,3.80
2019-04-14T00:04:36.162Z,3.80
2019-04-14T00:07:08.057Z,3.90
2019-04-14T00:09:40.141Z,3.90
2019-04-14T00:12:12.907Z,3.90
2019-04-14T00:14:44.800Z,4.00
2019-04-14T00:17:17.284Z,3.90
2019-04-14T00:19:50.218Z,4.00
2019-04-14T00:22:22.701Z,4.00
2019-04-14T00:24:55.382Z,4.00
2019-04-14T00:27:28.133Z,4.00
2019-04-14T00:30:01.132Z,4.00
2019-04-14T00:32:35.501Z,4.00
2019-04-14T00:35:27.725Z,4.00
2019-04-14T00:38:17.896Z,3.90
2019-04-14T00:41:05.228Z,3.80
2019-04-14T00:43:57.012Z,3.80
2019-04-14T00:46:36.816Z,3.80
2019-04-14T00:49:09.561Z,3.70
2019-04-14T00:51:42.406Z,3.70
2019-04-14T00:54:16.102Z,3.70
2019-04-14T00:56:48.438Z,3.60
2019-04-14T00:59:20.282Z,3.60
2019-04-14T01:01:52.741Z,3.60
2019-04-14T01:04:27.242Z,3.60
2019-04-14T01:07:00.123Z,3.60
2019-04-14T01:09:32.699Z,3.60
2019-04-14T01:12:04.596Z,3.60
2019-04-14T01:14:36.610Z,3.70
2019-04-14T01:17:09.054Z,3.70
2019-04-14T01:19:41.693Z,3.80
2019-04-14T01:22:14.174Z,3.90
2019-04-14T01:24:46.845Z,4.00
2019-04-14T01:27:19.327Z,4.00
2019-04-14T01:29:51.609Z,4.20
2019-04-14T01:32:24.115Z,4.20
2019-04-14T01:34:56.925Z,4.30
2019-04-14T01:37:29.153Z,4.40
2019-04-14T01:40:03.300Z,4.30
2019-04-14T01:42:35.533Z,4.30
2019-04-14T01:45:10.441Z,4.40
2019-04-14T01:47:42.866Z,4.40
2019-04-14T01:50:15.280Z,4.40
2019-04-14T01:53:05.315Z,4.40
2019-04-14T01:56:12.365Z,4.40
2019-04-14T01:58:49.130Z,4.40
2019-04-14T02:01:26.036Z,4.30
2019-04-14T02:03:58.462Z,4.30
2019-04-14T02:06:31.257Z,4.30
2019-04-14T02:09:07.471Z,4.30
2019-04-14T02:11:39.904Z,4.30
2019-04-14T02:14:12.998Z,4.30
2019-04-14T02:16:50.367Z,4.30
2019-04-14T02:19:19.888Z,4.30
2019-04-14T02:21:52.334Z,4.30
2019-04-14T02:24:24.251Z,4.20
2019-04-14T02:26:56.976Z,4.20
2019-04-14T02:29:29.751Z,4.20
2019-04-14T02:32:43.393Z,4.20
2019-04-14T02:35:02.966Z,4.20
2019-04-14T02:37:38.143Z,4.30
2019-04-14T02:40:08.745Z,4.30
2019-04-14T02:42:39.863Z,4.30
2019-04-14T02:45:19.531Z,4.20
2019-04-14T02:50:24.441Z,4.40
2019-04-14T02:53:01.592Z,4.40
2019-04-14T02:55:29.899Z,4.40
2019-04-14T03:00:42.080Z,4.40
2019-04-14T03:03:16.894Z,4.40
2019-04-14T03:10:57.589Z,4.30
2019-04-14T03:13:28.802Z,4.30
2019-04-14T03:16:09.703Z,4.20
2019-04-14T03:18:52.665Z,4.20
2019-04-14T03:21:48.801Z,4.30
2019-04-14T03:24:27.499Z,4.20
2019-04-14T03:27:22.799Z,4.10
2019-04-14T03:29:59.949Z,4.10
2019-04-14T03:32:52.799Z,4.10
2019-04-14T03:35:35.528Z,4.00
2019-04-14T03:40:21.657Z,3.80
2019-04-14T03:45:30.010Z,3.80
2019-04-14T03:48:31.758Z,3.80
2019-04-14T03:50:30.785Z,3.70
2019-04-14T03:53:05.859Z,3.70
2019-04-14T03:55:41.429Z,3.60
2019-04-14T03:58:05.941Z,3.50
2019-04-14T04:00:37.941Z,3.40
2019-04-14T04:03:10.647Z,3.40
2019-04-14T04:05:43.479Z,3.40
2019-04-14T04:08:16.050Z,3.40
2019-04-14T04:10:48.693Z,3.40
2019-04-14T04:13:21.575Z,3.30
2019-04-14T04:15:56.114Z,3.20
2019-04-14T04:18:28.800Z,3.10
2019-04-14T04:21:18.693Z,3.00
2019-04-14T04:24:10.443Z,2.90
2019-04-14T04:26:54.363Z,2.90
2019-04-14T04:29:42.634Z,2.80
2019-04-14T04:32:25.712Z,2.80
2019-04-14T04:35:10.935Z,2.70
2019-04-14T04:37:56.356Z,2.70
2019-04-14T04:40:31.219Z,2.60
2019-04-14T04:43:03.829Z,2.60
2019-04-14T04:45:36.579Z,2.50
2019-04-14T04:48:08.915Z,2.50
2019-04-14T04:50:47.642Z,2.50
2019-04-14T04:53:22.324Z,2.50
2019-04-14T04:55:54.702Z,2.50
2019-04-14T04:58:26.586Z,2.50
2019-04-14T05:00:59.592Z,2.50
2019-04-14T05:03:32.106Z,2.50
2019-04-14T05:06:13.323Z,2.50
2019-04-14T05:08:50.382Z,2.50
2019-04-14T05:11:31.703Z,2.50
2019-04-14T05:14:09.342Z,2.50
2019-04-14T05:16:41.830Z,2.50
2019-04-14T05:19:23.249Z,2.60
2019-04-14T05:21:47.862Z,2.60
2019-04-14T05:24:20.019Z,2.60
2019-04-14T05:26:52.712Z,2.70
2019-04-14T05:29:25.393Z,2.80
2019-04-14T05:31:57.669Z,2.80
2019-04-14T05:34:30.452Z,2.90
2019-04-14T05:37:02.899Z,2.90
2019-04-14T05:39:40.065Z,3.10
2019-04-14T05:42:18.013Z,3.10
2019-04-14T05:45:02.491Z,3.20
2019-04-14T05:47:35.009Z,3.20
2019-04-14T05:50:07.635Z,3.20
2019-04-14T05:52:40.485Z,3.20
2019-04-14T05:55:13.509Z,3.20
2019-04-14T05:57:46.036Z,3.30
2019-04-14T06:00:19.631Z,3.30
2019-04-14T06:02:55.195Z,3.30
2019-04-14T06:05:27.851Z,3.30
2019-04-14T06:08:00.218Z,3.30
2019-04-14T06:10:32.424Z,3.40
2019-04-14T06:13:11.799Z,3.40
2019-04-14T06:15:44.046Z,3.50
2019-04-14T06:18:17.157Z,3.60
2019-04-14T06:20:49.514Z,3.60
2019-04-14T06:23:21.409Z,3.70
2019-04-14T06:25:53.309Z,3.70
2019-04-14T06:28:34.731Z,3.70
2019-04-14T06:31:25.443Z,3.80
2019-04-14T06:34:07.862Z,3.80
2019-04-14T06:37:11.313Z,3.90
2019-04-14T06:39:46.957Z,4.00
2019-04-14T06:42:19.513Z,4.10
2019-04-14T06:44:51.438Z,4.20
2019-04-14T06:47:25.097Z,4.30
2019-04-14T06:50:08.657Z,4.40
2019-04-14T06:52:40.604Z,4.60
2019-04-14T06:55:13.605Z,4.70
2019-04-14T06:57:46.020Z,4.90
2019-04-14T07:00:17.959Z,5.00
2019-04-14T07:02:50.134Z,5.10
2019-04-14T07:05:22.534Z,5.30
2019-04-14T07:07:57.297Z,5.40
2019-04-14T07:10:28.527Z,5.60
2019-04-14T07:13:01.251Z,5.70
2019-04-14T07:15:33.581Z,5.80
2019-04-14T07:18:05.520Z,5.80
2019-04-14T07:20:38.693Z,5.70
2019-04-14T07:23:11.468Z,5.70
2019-04-14T07:25:43.350Z,5.80
2019-04-14T07:28:15.950Z,5.90
2019-04-14T07:31:06.693Z,5.90
2019-04-14T07:33:56.036Z,5.80
2019-04-14T07:36:46.592Z,5.80
2019-04-14T07:39:56.395Z,5.80
2019-04-14T07:42:47.154Z,5.90
2019-04-14T07:45:46.143Z,6.10
2019-04-14T07:48:52.859Z,6.30
2019-04-14T07:51:49.978Z,6.60
2019-04-14T07:54:29.722Z,6.80
2019-04-14T07:57:26.864Z,6.90
2019-04-14T08:00:24.333Z,7.10
2019-04-14T08:03:00.994Z,7.10
2019-04-14T08:05:36.108Z,6.90
2019-04-14T08:08:08.534Z,7.00
2019-04-14T08:10:41.039Z,7.20
2019-04-14T08:13:13.443Z,7.30
2019-04-14T08:15:45.981Z,7.30
2019-04-14T08:18:19.682Z,7.20
2019-04-14T08:20:52.210Z,7.30
2019-04-14T08:23:24.711Z,7.20
2019-04-14T08:25:57.207Z,7.20
2019-04-14T08:28:29.660Z,7.30
2019-04-14T08:31:02.110Z,7.30
2019-04-14T08:33:35.067Z,7.50
2019-04-14T08:36:07.019Z,7.40
2019-04-14T08:38:38.813Z,7.50
2019-04-14T08:41:11.687Z,7.50
2019-04-14T08:44:08.558Z,7.60
2019-04-14T08:47:05.570Z,7.60
2019-04-14T08:49:55.478Z,7.60
2019-04-14T08:52:49.826Z,7.50
2019-04-14T08:55:52.584Z,7.70
2019-04-14T08:58:33.250Z,8.00
2019-04-14T09:01:24.163Z,7.90
2019-04-14T09:04:01.194Z,7.80
2019-04-14T09:06:50.669Z,7.70
2019-04-14T09:09:26.831Z,7.70
2019-04-14T09:12:14.894Z,7.70
2019-04-14T09:14:38.660Z,7.60
2019-04-14T09:17:10.560Z,7.70
2019-04-14T09:19:42.953Z,7.80
2019-04-14T09:22:15.253Z,7.80
2019-04-14T09:24:47.048Z,8.00
2019-04-14T09:27:18.994Z,8.00
2019-04-14T09:29:52.571Z,7.90
2019-04-14T09:32:25.580Z,7.90
2019-04-14T09:34:58.045Z,7.80
2019-04-14T09:37:31.898Z,7.80
2019-04-14T09:40:03.711Z,8.00
2019-04-14T09:42:35.973Z,8.20
2019-04-14T09:45:07.971Z,8.20
2019-04-14T09:47:40.184Z,8.40
2019-04-14T09:50:12.374Z,8.50
2019-04-14T09:52:44.191Z,8.60
2019-04-14T09:55:16.101Z,8.20
2019-04-14T09:57:48.017Z,8.10
2019-04-14T10:00:22.532Z,8.40
2019-04-14T10:02:55.386Z,8.60
2019-04-14T10:05:27.724Z,8.40
2019-04-14T10:07:59.561Z,8.30
2019-04-14T10:10:31.481Z,8.40
2019-04-14T10:13:05.384Z,8.70
2019-04-14T10:15:38.290Z,8.70
2019-04-14T10:18:13.480Z,8.30
2019-04-14T10:20:45.388Z,8.20
2019-04-14T10:23:17.281Z,8.30
2019-04-14T10:25:49.192Z,8.30
2019-04-14T10:28:21.080Z,8.30
2019-04-14T10:30:52.980Z,8.60
2019-04-14T10:33:25.357Z,8.60
2019-04-14T10:35:58.200Z,8.40
2019-04-14T10:38:31.138Z,8.50
2019-04-14T10:41:03.049Z,8.30
2019-04-14T10:43:34.950Z,8.50
2019-04-14T10:46:07.459Z,8.80
2019-04-14T10:48:39.403Z,9.10
2019-04-14T10:51:11.759Z,9.10
2019-04-14T10:53:44.580Z,9.20
2019-04-14T10:56:17.344Z,9.40
2019-04-14T10:58:49.644Z,9.10
2019-04-14T11:01:22.976Z,8.90
2019-04-14T11:03:56.298Z,9.00
2019-04-14T11:06:41.559Z,9.00
2019-04-14T11:09:15.284Z,9.20
2019-04-14T11:11:48.054Z,9.20
2019-04-14T11:14:19.939Z,9.00
2019-04-14T11:16:51.876Z,9.10
2019-04-14T11:19:24.226Z,9.10
2019-04-14T11:21:56.079Z,8.90
2019-04-14T11:24:28.261Z,8.70
2019-04-14T11:27:00.779Z,8.60
2019-04-14T11:29:33.559Z,8.70
2019-04-14T11:32:23.422Z,8.90
2019-04-14T11:35:17.344Z,8.80
2019-04-14T11:38:06.869Z,8.60
2019-04-14T11:40:42.618Z,8.60
2019-04-14T11:43:15.318Z,8.70
2019-04-14T11:45:47.163Z,8.90
2019-04-14T11:48:20.074Z,9.30
2019-04-14T11:50:52.536Z,9.70
2019-04-14T11:53:31.458Z,9.70
2019-04-14T11:56:04.049Z,9.80
2019-04-14T11:58:37.002Z,9.90
2019-04-14T12:01:24.694Z,9.70
2019-04-14T12:04:15.424Z,9.40
2019-04-14T12:07:17.351Z,9.50
2019-04-14T12:10:17.272Z,9.60
2019-04-14T12:12:50.162Z,10.20
2019-04-14T12:15:26.846Z,10.60
2019-04-14T12:17:58.730Z,10.10
2019-04-14T12:20:31.080Z,10.20
2019-04-14T12:23:02.969Z,10.00
2019-04-14T12:25:35.422Z,10.00
2019-04-14T12:28:09.259Z,9.90
2019-04-14T12:30:41.993Z,10.20
2019-04-14T12:33:14.843Z,10.30
2019-04-14T12:35:46.734Z,10.10
2019-04-14T12:38:19.215Z,10.20
2019-04-14T12:40:52.454Z,10.20
2019-04-14T12:43:41.035Z,10.20
2019-04-14T12:46:23.306Z,10.30
2019-04-14T12:49:20.465Z,10.30
2019-04-14T12:52:20.594Z,10.30
2019-04-14T12:54:43.963Z,10.20
2019-04-14T12:57:17.445Z,9.90
2019-04-14T12:59:50.930Z,9.60
2019-04-14T13:02:25.404Z,9.90
2019-04-14T13:04:57.681Z,9.90
2019-04-14T13:07:29.553Z,9.80
2019-04-14T13:10:07.918Z,10.00
2019-04-14T13:12:39.919Z,10.30
2019-04-14T13:15:11.960Z,10.40
2019-04-14T13:17:44.398Z,10.50
2019-04-14T13:20:16.731Z,10.50
2019-04-14T13:22:52.516Z,10.30
2019-04-14T13:25:31.689Z,10.10
2019-04-14T13:28:06.283Z,9.90
2019-04-14T13:30:41.868Z,9.90
2019-04-14T13:33:14.177Z,9.80
2019-04-14T13:35:46.038Z,9.80
2019-04-14T13:38:19.657Z,9.80
2019-04-14T13:40:52.332Z,9.80
2019-04-14T13:43:28.412Z,10.10
2019-04-14T13:46:01.616Z,9.70
2019-04-14T13:48:33.979Z,9.70
2019-04-14T13:51:06.618Z,10.00
2019-04-14T13:53:40.539Z,10.00
2019-04-14T13:56:24.439Z,10.00
2019-04-14T13:58:57.355Z,9.80
2019-04-14T14:01:29.321Z,9.90
2019-04-14T14:04:01.738Z,9.40
2019-04-14T14:06:33.656Z,9.50
2019-04-14T14:09:12.496Z,9.50
2019-04-14T14:12:07.798Z,9.70
2019-04-14T14:15:11.926Z,9.70
2019-04-14T14:18:05.330Z,9.50
2019-04-14T14:20:55.375Z,9.50
2019-04-14T14:23:32.449Z,9.20
2019-04-14T14:26:07.866Z,8.80
2019-04-14T14:28:39.936Z,8.60
2019-04-14T14:31:13.760Z,8.40
2019-04-14T14:33:45.768Z,8.50
2019-04-14T14:36:17.747Z,8.60
2019-04-14T14:38:50.731Z,8.80
2019-04-14T14:41:22.855Z,8.70
2019-04-14T14:43:54.830Z,8.80
2019-04-14T14:46:39.004Z,8.80
2019-04-14T14:49:22.710Z,8.70
2019-04-14T14:52:05.634Z,8.50
2019-04-14T14:54:37.554Z,8.50
2019-04-14T14:57:09.430Z,8.50
2019-04-14T14:59:41.983Z,8.60
2019-04-14T15:02:13.928Z,8.70
2019-04-14T15:04:45.906Z,8.50
2019-04-14T15:07:18.411Z,8.30
2019-04-14T15:09:50.299Z,8.30
2019-04-14T15:12:22.168Z,8.20
2019-04-14T15:14:55.926Z,8.30
2019-04-14T15:17:27.957Z,8.60
2019-04-14T15:20:00.334Z,8.50
2019-04-14T15:22:32.703Z,8.70
2019-04-14T15:25:04.699Z,8.80
2019-04-14T15:27:37.283Z,9.10
2019-04-14T15:30:14.532Z,8.90
2019-04-14T15:32:47.214Z,8.30
2019-04-14T15:35:19.774Z,8.20
2019-04-14T15:37:51.709Z,8.10
2019-04-14T15:40:24.250Z,8.00
2019-04-14T15:42:56.593Z,8.00
2019-04-14T15:45:47.628Z,7.90
2019-04-14T15:48:38.763Z,7.80
2019-04-14T15:51:29.127Z,7.70
2019-04-14T15:54:18.712Z,7.60
2019-04-14T15:57:33.193Z,7.40
2019-04-14T16:00:41.309Z,7.40
2019-04-14T16:03:53.005Z,7.30
2019-04-14T16:06:50.452Z,7.40
2019-04-14T16:10:02.430Z,7.40
2019-04-14T16:13:10.983Z,7.40
2019-04-14T16:15:49.904Z,7.40
2019-04-14T16:18:40.623Z,7.40
2019-04-14T16:21:13.188Z,7.50
2019-04-14T16:23:50.843Z,7.60
2019-04-14T16:26:47.281Z,7.70
2019-04-14T16:29:29.568Z,7.80
2019-04-14T16:32:39.168Z,8.00
2019-04-14T16:35:15.341Z,8.30
2019-04-14T16:37:48.212Z,8.30
2019-04-14T16:40:20.188Z,8.20
2019-04-14T16:42:53.630Z,7.90
2019-04-14T16:45:26.015Z,7.80
2019-04-14T16:47:58.134Z,7.80
2019-04-14T16:50:30.045Z,7.90
2019-04-14T16:53:27.302Z,7.90
2019-04-14T16:56:21.512Z,7.80
2019-04-14T16:59:14.559Z,7.70
2019-04-14T17:02:10.689Z,7.60
2019-04-14T17:04:43.901Z,7.40
2019-04-14T17:07:17.543Z,7.30
2019-04-14T17:09:49.814Z,7.30
2019-04-14T17:12:25.170Z,7.20
2019-04-14T17:15:03.215Z,7.00
2019-04-14T17:17:56.517Z,6.90
2019-04-14T17:21:05.739Z,6.90
2019-04-14T17:23:43.290Z,6.90
2019-04-14T17:26:41.550Z,6.80
2019-04-14T17:29:37.652Z,6.70
2019-04-14T17:32:46.985Z,6.60
2019-04-14T17:35:49.265Z,6.50
2019-04-14T17:38:46.319Z,6.40
2019-04-14T17:41:34.704Z,6.40
2019-04-14T17:44:11.075Z,6.40
2019-04-14T17:47:02.460Z,6.40
2019-04-14T17:49:47.062Z,6.40
2019-04-14T17:52:38.428Z,6.30
2019-04-14T17:55:23.239Z,6.20
2019-04-14T17:58:14.415Z,6.20
2019-04-14T18:01:05.433Z,6.20
2019-04-14T18:03:54.427Z,6.20
2019-04-14T18:06:54.722Z,6.20
2019-04-14T18:09:38.899Z,6.20
2019-04-14T18:12:23.265Z,6.30
2019-04-14T18:15:26.363Z,6.30
2019-04-14T18:18:16.144Z,6.20
2019-04-14T18:20:54.192Z,6.20
2019-04-14T18:23:26.693Z,6.20
2019-04-14T18:25:58.693Z,6.10
2019-04-14T18:28:49.489Z,6.10
2019-04-14T18:31:29.169Z,6.00
2019-04-14T18:34:19.235Z,6.00
2019-04-14T18:36:56.569Z,6.00
2019-04-14T18:39:49.498Z,6.00
2019-04-14T18:42:41.798Z,5.90
2019-04-14T18:45:52.597Z,6.00
2019-04-14T18:48:58.431Z,5.90
2019-04-14T18:51:47.631Z,5.80
2019-04-14T18:54:33.596Z,5.80
2019-04-14T18:57:20.532Z,5.80
2019-04-14T18:59:57.281Z,5.80
2019-04-14T19:02:29.167Z,5.80
2019-04-14T19:05:01.909Z,5.80
2019-04-14T19:07:34.296Z,5.80
2019-04-14T19:10:11.966Z,5.90
2019-04-14T19:13:01.387Z,5.90
2019-04-14T19:15:52.787Z,5.90
2019-04-14T19:18:28.684Z,5.90
2019-04-14T19:21:04.219Z,6.00
2019-04-14T19:23:36.782Z,6.00
2019-04-14T19:26:14.506Z,6.00
2019-04-14T19:28:47.016Z,6.00
2019-04-14T19:31:18.918Z,5.90
2019-04-14T19:33:50.827Z,6.00
2019-04-14T19:36:23.239Z,6.00
2019-04-14T19:38:55.858Z,6.00
2019-04-14T19:41:27.688Z,6.00
2019-04-14T19:44:08.615Z,6.00
2019-04-14T19:46:40.762Z,6.10
2019-04-14T19:49:13.139Z,6.10
2019-04-14T19:51:46.040Z,6.10
2019-04-14T19:54:18.462Z,6.10
2019-04-14T19:56:51.307Z,6.20
2019-04-14T19:59:23.201Z,6.10
2019-04-14T20:01:56.123Z,6.10
2019-04-14T20:04:28.086Z,6.00
2019-04-14T20:07:00.540Z,6.10
2019-04-14T20:09:33.489Z,6.00
2019-04-14T20:12:05.965Z,6.10
2019-04-14T20:14:37.887Z,6.00
2019-04-14T20:17:28.609Z,6.10
2019-04-14T20:20:21.666Z,6.10
2019-04-14T20:23:21.710Z,6.10
2019-04-14T20:26:11.851Z,6.10
2019-04-14T20:28:51.414Z,6.10
2019-04-14T20:31:41.002Z,6.10
2019-04-14T20:34:13.803Z,6.10
2019-04-14T20:36:46.640Z,6.10
2019-04-14T20:39:19.999Z,6.20
2019-04-14T20:41:52.004Z,6.20
2019-04-14T20:44:24.300Z,6.20
2019-04-14T20:47:19.912Z,6.20
2019-04-14T20:49:52.042Z,6.20
2019-04-14T20:52:23.954Z,6.20
2019-04-14T20:54:56.076Z,6.10
2019-04-14T20:57:27.937Z,6.10
2019-04-14T21:00:01.355Z,6.20
2019-04-14T21:03:02.523Z,6.20
2019-04-14T21:06:01.021Z,6.20
2019-04-14T21:08:57.994Z,6.20
2019-04-14T21:11:34.309Z,6.20
2019-04-14T21:14:14.020Z,6.20
2019-04-14T21:16:57.963Z,6.20
2019-04-14T21:19:53.872Z,6.20
2019-04-14T21:22:39.353Z,6.20
2019-04-14T21:25:27.843Z,6.20
2019-04-14T21:28:12.295Z,6.30
2019-04-14T21:31:12.057Z,6.30
2019-04-14T21:34:03.902Z,6.40
2019-04-14T21:37:02.851Z,6.30
2019-04-14T21:39:52.223Z,6.30
2019-04-14T21:42:25.876Z,6.30
2019-04-14T21:44:59.073Z,6.20
2019-04-14T21:47:31.096Z,6.20
2019-04-14T21:50:02.988Z,6.20
2019-04-14T21:52:49.360Z,6.20
2019-04-14T21:55:21.258Z,6.20
2019-04-14T21:58:11.879Z,6.20
2019-04-14T22:01:44.971Z,6.20
2019-04-14T22:04:44.706Z,6.20
2019-04-14T22:07:41.704Z,6.20
2019-04-14T22:10:29.245Z,6.20
2019-04-14T22:13:01.785Z,6.20
2019-04-14T22:15:34.315Z,6.20
2019-04-14T22:18:07.276Z,6.20
2019-04-14T22:20:39.627Z,6.20
2019-04-14T22:23:13.558Z,6.20
2019-04-14T22:25:46.519Z,6.20
2019-04-14T22:28:18.909Z,6.20
2019-04-14T22:30:51.168Z,6.20
2019-04-14T22:33:23.450Z,6.20
2019-04-14T22:35:55.695Z,6.20
2019-04-14T22:38:27.557Z,6.20
2019-04-14T22:41:00.426Z,6.20
2019-04-14T22:43:32.628Z,6.30
2019-04-14T22:46:05.080Z,6.30
2019-04-14T22:48:39.391Z,6.40
2019-04-14T22:51:11.051Z,6.30
2019-04-14T22:53:43.545Z,6.30
2019-04-14T22:56:15.394Z,6.30
2019-04-14T22:58:47.301Z,6.40
2019-04-14T23:01:26.031Z,6.40
2019-04-14T23:04:12.149Z,6.40
2019-04-14T23:07:05.980Z,6.40
2019-04-14T23:09:48.710Z,6.50
2019-04-14T23:12:39.480Z,6.50
2019-04-14T23:15:30.208Z,6.50
2019-04-14T23:18:11.303Z,6.60
2019-04-14T23:21:01.990Z,6.50
2019-04-14T23:23:59.691Z,6.50
2019-04-14T23:26:32.556Z,6.60
2019-04-14T23:29:04.964Z,6.60
2019-04-14T23:31:37.432Z,6.70
2019-04-14T23:34:09.358Z,6.70
2019-04-14T23:36:41.290Z,6.60
2019-04-14T23:39:14.072Z,6.60
2019-04-14T23:41:46.045Z,6.60
2019-04-14T23:44:18.624Z,6.60
2019-04-14T23:46:50.556Z,6.60
2019-04-14T23:49:22.527Z,6.50
2019-04-14T23:51:54.900Z,6.60
2019-04-14T23:54:26.728Z,6.60
2019-04-14T23:57:05.193Z,6.50
2019-04-14T23:59:32.712Z,6.50
